Main page
METAR-TAF:

METAR-TAF

Airports :

Dhahran, Saudi Arabia

King Abdulaziz Air Base

latitude: 26-16N, longitude: 050-09E, elevation: 26 m

Current weather observation

The report was made 32 minutes ago, at 20:00 UTC
Wind 6 kt from the North
Temperature 31°C
Humidity 22%
Pressure 1007 hPa
Visibility 10 km or more
no clouds below 1500 m and no cumulonimbus

METAR: OEDR 302000Z 35006KT CAVOK 31/07 Q1007 NOSIG

Time: 23:32 (20:32 UTC)

Forecast

The report was made 4 hours and 32 minutes ago, at 16:00 UTC
Forecast valid from 30 at 18 UTC to 01 at 24 UTC
Wind 6 kt from the Northwest
Visibility: 7000 m
Temporary
from 01 at 02 UTC to 01 at 06 UTC
Visibility: 2000 m
widespread dust
Becoming
from 01 at 06 UTC to 01 at 08 UTC
Wind 10 kt from the East/Northeast

TAF: OEDR 301600Z 3018/0124 32006KT 7000 NSC TEMPO 0102/0106 2000 DU BECMG 0106/0108 06010KT

Weather observations and forecasts of more than 4000 airports (METAR and TAF reports).

The available stations are represented by yellow and red dots on the map.

Hover mouse over dot to see the name of the station.

Then click to see weather observations and forecasts.

To change the map : click on the green buttons with a black cross to zoom in, on the green button with a dash to zoom out, or on the green arrows for adjacent maps.


METAR-TAF: